T Rex — V7KA2 — position and weather

sailwx.info

Track history (hours):
 
Tides and Currents Weather Stations Pressure Air Temp Water Temp Dewpoint Dewpoint Depression Visibility Wind Speed Wind Dir Waves Ship Positions

T Rex

Last reported at 2018-Jun-19 07:25 UTC. Time now 2018-Jun-24 03:42 UTC.
Position N 01°24' E 103°12'.

Length 183 m; draft 8.8 m.

Type: Ship (hazmat cat D). MMSI: 538002594.

Date/timePositionNaut miles runAvg speedWind from/ knotsBaromVisibWave heightAir tempDewpointWater temp
2018-Jun-19 07:25N 01°24' E 103°12'512.2
2018-Jun-19 06:59N 01°20' E 103°16'612.0
2018-Jun-19 06:29N 01°17' E 103°21'612.2
2018-Jun-19 05:59N 01°14' E 103°26'612.8
2018-Jun-19 05:30N 01°13' E 103°32'713.1
2018-Jun-19 04:59N 01°11' E 103°39'613.0
2018-Jun-19 04:30N 01°09' E 103°45'510.0
2018-Jun-19 04:01N 01°11' E 103°49'2 3.3
2018-Jun-19 03:28N 01°13' E 103°48'0 0.0
2018-Jun-19 02:59N 01°13' E 103°48'0 0.1
2018-Jun-19 02:26N 01°13' E 103°48'0 0.0
2018-Jun-19 01:59N 01°13' E 103°48'0 0.1
2018-Jun-19 01:28N 01°13' E 103°48'0 0.1
2018-Jun-19 00:58N 01°13' E 103°48'0 0.0
2018-Jun-19 00:29N 01°13' E 103°48'0 0.1
2018-Jun-18 23:58N 01°13' E 103°48'0 0.1
2018-Jun-18 23:28N 01°13' E 103°48'0 0.0
2018-Jun-18 22:55N 01°13' E 103°48'0 0.0
2018-Jun-18 22:26N 01°13' E 103°48'0 0.0
2018-Jun-18 21:59N 01°13' E 103°48'0 0.0
2018-Jun-18 21:28N 01°13' E 103°48'0 0.0
2018-Jun-18 20:58N 01°13' E 103°48'0 0.0
2018-Jun-18 20:28N 01°13' E 103°48'0 0.0
2018-Jun-18 19:59N 01°13' E 103°48'0 0.0
2018-Jun-18 19:28N 01°13' E 103°48'0 0.0
2018-Jun-18 18:59N 01°13' E 103°48'0 0.3
2018-Jun-18 18:28N 01°13' E 103°48'0 0.1
2018-Jun-18 17:58N 01°13' E 103°48'0 0.1
2018-Jun-18 17:28N 01°13' E 103°48'0 0.0
2018-Jun-18 16:53N 01°13' E 103°48'0 0.0
2018-Jun-18 16:22N 01°13' E 103°48'0 0.0
2018-Jun-18 15:56N 01°13' E 103°48'0 0.0
2018-Jun-18 15:20N 01°13' E 103°48'0 0.0
2018-Jun-18 14:56N 01°13' E 103°48'0 0.0
2018-Jun-18 14:28N 01°13' E 103°48'0 0.0
2018-Jun-18 13:58N 01°13' E 103°48'0 0.0
2018-Jun-18 13:28N 01°13' E 103°48'0 0.8
2018-Jun-18 13:01N 01°13' E 103°49'3 5.6
2018-Jun-18 12:30N 01°13' E 103°51'510.9
2018-Jun-18 12:00N 01°15' E 103°56'4 7.4
2018-Jun-18 11:31N 01°16' E 103°60'3 5.6
2018-Jun-18 11:00N 01°16' E 104°03'3 4.9
2018-Jun-18 10:30N 01°16' E 104°05'2 4.8
2018-Jun-18 10:00N 01°17' E 104°07'2 4.4
2018-Jun-18 09:30N 01°17' E 104°10'4 7.1
2018-Jun-18 08:58N 01°17' E 104°13'611.9
2018-Jun-18 08:27N 01°19' E 104°19'511.9
2018-Jun-18 08:00N 01°22' E 104°24'511.2
2018-Jun-18 07:30N 01°26' E 104°28'  
Track history (hours):
 
Tides and Currents Weather Stations Pressure Air Temp Water Temp Dewpoint Dewpoint Depression Visibility Wind Speed Wind Dir Waves Ship Positions

T Rex

Last reported at 2018-Jun-19 07:25 UTC. Time now 2018-Jun-24 03:42 UTC.
Position N 01°24' E 103°12'.

Length 183 m; draft 8.8 m.

Type: Ship (hazmat cat D). MMSI: 538002594.

Date/timePositionNaut miles runAvg speedWind from/ knotsBaromVisibWave heightAir tempDewpointWater temp
2018-Jun-19 07:25N 01°24' E 103°12'512.2
2018-Jun-19 06:59N 01°20' E 103°16'612.0
2018-Jun-19 06:29N 01°17' E 103°21'612.2
2018-Jun-19 05:59N 01°14' E 103°26'612.8
2018-Jun-19 05:30N 01°13' E 103°32'713.1
2018-Jun-19 04:59N 01°11' E 103°39'613.0
2018-Jun-19 04:30N 01°09' E 103°45'510.0
2018-Jun-19 04:01N 01°11' E 103°49'2 3.3
2018-Jun-19 03:28N 01°13' E 103°48'0 0.0
2018-Jun-19 02:59N 01°13' E 103°48'0 0.1
2018-Jun-19 02:26N 01°13' E 103°48'0 0.0
2018-Jun-19 01:59N 01°13' E 103°48'0 0.1
2018-Jun-19 01:28N 01°13' E 103°48'0 0.1
2018-Jun-19 00:58N 01°13' E 103°48'0 0.0
2018-Jun-19 00:29N 01°13' E 103°48'0 0.1
2018-Jun-18 23:58N 01°13' E 103°48'0 0.1
2018-Jun-18 23:28N 01°13' E 103°48'0 0.0
2018-Jun-18 22:55N 01°13' E 103°48'0 0.0
2018-Jun-18 22:26N 01°13' E 103°48'0 0.0
2018-Jun-18 21:59N 01°13' E 103°48'0 0.0
2018-Jun-18 21:28N 01°13' E 103°48'0 0.0
2018-Jun-18 20:58N 01°13' E 103°48'0 0.0
2018-Jun-18 20:28N 01°13' E 103°48'0 0.0
2018-Jun-18 19:59N 01°13' E 103°48'0 0.0
2018-Jun-18 19:28N 01°13' E 103°48'0 0.0
2018-Jun-18 18:59N 01°13' E 103°48'0 0.3
2018-Jun-18 18:28N 01°13' E 103°48'0 0.1
2018-Jun-18 17:58N 01°13' E 103°48'0 0.1
2018-Jun-18 17:28N 01°13' E 103°48'0 0.0
2018-Jun-18 16:53N 01°13' E 103°48'0 0.0
2018-Jun-18 16:22N 01°13' E 103°48'0 0.0
2018-Jun-18 15:56N 01°13' E 103°48'0 0.0
2018-Jun-18 15:20N 01°13' E 103°48'0 0.0
2018-Jun-18 14:56N 01°13' E 103°48'0 0.0
2018-Jun-18 14:28N 01°13' E 103°48'0 0.0
2018-Jun-18 13:58N 01°13' E 103°48'0 0.0
2018-Jun-18 13:28N 01°13' E 103°48'0 0.8
2018-Jun-18 13:01N 01°13' E 103°49'3 5.6
2018-Jun-18 12:30N 01°13' E 103°51'510.9
2018-Jun-18 12:00N 01°15' E 103°56'4 7.4
2018-Jun-18 11:31N 01°16' E 103°60'3 5.6
2018-Jun-18 11:00N 01°16' E 104°03'3 4.9
2018-Jun-18 10:30N 01°16' E 104°05'2 4.8
2018-Jun-18 10:00N 01°17' E 104°07'2 4.4
2018-Jun-18 09:30N 01°17' E 104°10'4 7.1
2018-Jun-18 08:58N 01°17' E 104°13'611.9
2018-Jun-18 08:27N 01°19' E 104°19'511.9
2018-Jun-18 08:00N 01°22' E 104°24'511.2
2018-Jun-18 07:30N 01°26' E 104°28'  

Dump ship's entire track history